Time;durP1;ratioP1;P1;durP2;ratioP2;P2;SDS_P1;SDS_P2;PMS_P1;PMS_P2;Temp;Humidity;BMP_temperature;BMP_pressure;BME280_temperature;BME280_humidity;BME280_pressure;Samples;Min_cycle;Max_cycle;Signal;HPM_P1;HPM_P2
2021/05/25 00:00:49;;;;;;;5.10;1.65;;;15.10;76.90;;;;;;5047535;28;20082;-59
2021/05/25 00:03:15;;;;;;;2.75;1.40;;;15.10;76.80;;;;;;5064674;28;20479;-60
2021/05/25 00:05:41;;;;;;;2.78;1.30;;;15.10;76.80;;;;;;5065163;28;20104;-60
2021/05/25 00:08:08;;;;;;;2.70;1.50;;;15.10;76.80;;;;;;5059134;28;20024;-60
2021/05/25 00:10:34;;;;;;;1.77;1.00;;;15.10;76.70;;;;;;5044855;28;20036;-60
2021/05/25 00:13:00;;;;;;;4.75;1.23;;;15.10;76.70;;;;;;5049582;28;20045;-60
2021/05/25 00:15:26;;;;;;;2.10;1.27;;;15.30;76.80;;;;;;5048552;28;20135;-60
2021/05/25 00:17:51;;;;;;;2.10;1.30;;;15.10;76.70;;;;;;5047285;28;20021;-60
2021/05/25 00:20:18;;;;;;;2.83;1.70;;;15.00;76.70;;;;;;5052518;28;20068;-60
2021/05/25 00:22:43;;;;;;;3.17;2.03;;;15.00;76.60;;;;;;5027142;28;20166;-60
2021/05/25 00:25:10;;;;;;;2.15;1.90;;;15.10;76.60;;;;;;5021443;28;20492;-60
2021/05/25 00:27:35;;;;;;;2.78;2.13;;;15.00;76.50;;;;;;5023634;28;20119;-60
2021/05/25 00:30:01;;;;;;;2.60;1.67;;;15.00;76.50;;;;;;5035139;28;20108;-60
2021/05/25 00:32:26;;;;;;;3.20;2.10;;;15.00;76.50;;;;;;5037669;28;20033;-60
2021/05/25 00:34:52;;;;;;;3.90;2.22;;;15.00;76.50;;;;;;5053346;28;20045;-60
2021/05/25 00:37:17;;;;;;;2.58;1.92;;;15.00;76.50;;;;;;5036685;28;20025;-60
2021/05/25 00:39:43;;;;;;;2.85;2.03;;;15.00;76.60;;;;;;5050013;28;20013;-60
2021/05/25 00:42:08;;;;;;;5.50;2.10;;;14.90;76.50;;;;;;5039826;28;20459;-60
2021/05/25 00:44:34;;;;;;;6.72;2.15;;;14.90;76.60;;;;;;5060374;28;20040;-60
2021/05/25 00:46:59;;;;;;;3.17;2.03;;;14.90;76.60;;;;;;5018360;28;20120;-60
2021/05/25 00:49:25;;;;;;;2.45;1.70;;;14.90;76.50;;;;;;5048082;28;20033;-60
2021/05/25 00:51:51;;;;;;;3.42;1.73;;;14.90;76.50;;;;;;5031390;28;20050;-60
2021/05/25 00:54:16;;;;;;;3.60;1.83;;;14.90;76.60;;;;;;5034689;28;20444;-60
2021/05/25 00:56:42;;;;;;;2.70;2.10;;;14.90;76.50;;;;;;5042255;28;20431;-60
2021/05/25 00:59:07;;;;;;;4.07;1.80;;;14.90;76.50;;;;;;5036628;28;20036;-60
2021/05/25 01:01:33;;;;;;;2.67;1.63;;;14.80;76.50;;;;;;5014856;28;20488;-60
2021/05/25 01:03:58;;;;;;;3.83;1.77;;;14.80;76.50;;;;;;5035280;28;20064;-60
2021/05/25 01:06:24;;;;;;;4.32;1.95;;;14.80;76.50;;;;;;5033148;28;20120;-60
2021/05/25 01:08:49;;;;;;;3.20;1.92;;;14.80;76.40;;;;;;5030586;28;20052;-60
2021/05/25 01:11:17;;;;;;;2.10;1.50;;;14.70;76.40;;;;;;5028117;28;20045;-60
2021/05/25 01:13:51;;;;;;;2.60;1.65;;;14.70;76.40;;;;;;5059917;28;20025;-60
2021/05/25 01:16:17;;;;;;;3.25;1.90;;;14.70;76.30;;;;;;5035834;28;20033;-60
2021/05/25 01:18:43;;;;;;;2.65;1.58;;;14.70;76.30;;;;;;5029026;28;20521;-60
2021/05/25 01:21:09;;;;;;;2.30;1.35;;;14.70;76.30;;;;;;5035508;28;20395;-60
2021/05/25 01:23:35;;;;;;;3.00;1.60;;;14.70;76.20;;;;;;5041118;28;20543;-60
2021/05/25 01:26:01;;;;;;;3.45;1.63;;;14.70;76.20;;;;;;5040666;28;20036;-61
2021/05/25 01:28:27;;;;;;;4.22;1.63;;;14.70;76.10;;;;;;5056009;28;20037;-60
2021/05/25 01:30:53;;;;;;;2.25;1.40;;;14.70;76.10;;;;;;5069154;28;20071;-60
2021/05/25 01:33:19;;;;;;;3.13;1.63;;;14.60;75.90;;;;;;5041539;28;20025;-60
2021/05/25 01:35:44;;;;;;;2.22;1.45;;;14.70;76.00;;;;;;5065677;28;20031;-60
2021/05/25 01:38:11;;;;;;;3.10;1.48;;;14.70;75.90;;;;;;5068198;28;20016;-60
2021/05/25 01:40:36;;;;;;;5.85;1.65;;;14.60;75.90;;;;;;5058120;28;20028;-60
2021/05/25 01:43:02;;;;;;;4.32;1.80;;;14.60;75.90;;;;;;5059770;28;20456;-60
2021/05/25 01:45:29;;;;;;;4.78;1.92;;;14.60;75.90;;;;;;5053019;28;20031;-60
2021/05/25 01:47:55;;;;;;;5.78;2.58;;;14.60;76.00;;;;;;5064651;28;20024;-60
2021/05/25 01:50:21;;;;;;;2.60;2.15;;;14.50;75.90;;;;;;5041420;28;20112;-60
2021/05/25 01:53:00;;;;;;;3.80;2.20;;;14.70;76.00;;;;;;5065287;28;20748;-60
2021/05/25 01:55:43;;;;;;;3.83;1.80;;;14.50;75.90;;;;;;5045101;28;20035;-60
2021/05/25 01:58:09;;;;;;;3.08;1.70;;;14.50;75.90;;;;;;5064103;28;20495;-60
2021/05/25 02:00:36;;;;;;;2.63;1.75;;;14.50;75.90;;;;;;5064034;28;20029;-60
2021/05/25 02:03:02;;;;;;;2.20;1.60;;;14.30;75.80;;;;;;5044958;28;20067;-60
2021/05/25 02:05:27;;;;;;;3.85;1.77;;;14.50;75.80;;;;;;5065859;28;20032;-60
2021/05/25 02:07:53;;;;;;;3.15;1.80;;;14.50;75.80;;;;;;5047245;28;20033;-60
2021/05/25 02:10:29;;;;;;;4.80;2.15;;;14.50;75.80;;;;;;5049125;28;20082;-60
2021/05/25 02:12:57;;;;;;;3.63;1.90;;;14.40;75.80;;;;;;5066621;28;20116;-60
2021/05/25 02:15:22;;;;;;;3.75;1.98;;;14.40;75.80;;;;;;5069879;28;20093;-60
2021/05/25 02:17:48;;;;;;;2.80;1.90;;;14.40;75.80;;;;;;5053218;28;20480;-60
2021/05/25 02:20:14;;;;;;;2.42;1.88;;;14.60;75.90;;;;;;5071107;28;21150;-60
2021/05/25 02:22:39;;;;;;;4.13;1.85;;;14.40;75.90;;;;;;5069408;28;20445;-60
2021/05/25 02:25:05;;;;;;;3.78;1.90;;;14.40;76.00;;;;;;5063334;28;20029;-60
2021/05/25 02:27:31;;;;;;;3.63;1.90;;;14.40;76.00;;;;;;5046461;28;20392;-60
2021/05/25 02:29:56;;;;;;;3.95;2.90;;;14.40;76.10;;;;;;5062392;28;20936;-60
2021/05/25 02:32:22;;;;;;;4.30;2.20;;;14.40;76.30;;;;;;5053348;28;20058;-60
2021/05/25 02:34:47;;;;;;;5.25;3.03;;;14.40;76.30;;;;;;5068591;28;20492;-60
2021/05/25 02:37:13;;;;;;;3.95;2.35;;;14.30;76.30;;;;;;5066592;28;20025;-60
2021/05/25 02:39:38;;;;;;;5.00;2.67;;;14.30;76.30;;;;;;5061678;28;20045;-60
2021/05/25 02:42:04;;;;;;;4.00;2.70;;;14.30;76.30;;;;;;5061190;28;20040;-60
2021/05/25 02:44:30;;;;;;;3.58;2.47;;;14.30;76.30;;;;;;5064872;28;20415;-60
2021/05/25 02:46:55;;;;;;;3.20;2.30;;;14.30;76.30;;;;;;5052817;28;20112;-60
2021/05/25 02:49:21;;;;;;;3.53;2.10;;;14.20;76.30;;;;;;5070590;28;20093;-60
2021/05/25 02:51:46;;;;;;;4.07;2.45;;;14.30;76.40;;;;;;5066614;28;20029;-60
2021/05/25 02:54:12;;;;;;;3.17;1.90;;;14.20;76.30;;;;;;5070590;28;20543;-60
2021/05/25 02:56:37;;;;;;;4.32;2.30;;;14.20;76.30;;;;;;5065334;28;20041;-60
2021/05/25 02:59:03;;;;;;;4.78;2.70;;;14.20;76.40;;;;;;5063912;28;20024;-60
2021/05/25 03:01:28;;;;;;;3.90;2.50;;;14.10;76.30;;;;;;5056005;28;20354;-60
2021/05/25 03:03:54;;;;;;;2.90;1.92;;;14.20;76.40;;;;;;5059441;28;20473;-59
2021/05/25 03:06:19;;;;;;;3.92;2.28;;;14.20;76.40;;;;;;5066563;28;20507;-60
2021/05/25 03:08:45;;;;;;;4.90;2.33;;;14.10;76.30;;;;;;5057462;28;20032;-59
2021/05/25 03:11:10;;;;;;;5.18;2.03;;;14.10;76.30;;;;;;5063105;28;20040;-60
2021/05/25 03:13:36;;;;;;;3.22;2.33;;;14.10;76.30;;;;;;5062322;28;20021;-60
2021/05/25 03:16:01;;;;;;;4.28;2.20;;;14.10;76.30;;;;;;5060479;28;20434;-60
2021/05/25 03:18:27;;;;;;;3.15;1.88;;;14.10;76.30;;;;;;5068714;28;20624;-60
2021/05/25 03:20:53;;;;;;;6.85;2.30;;;14.10;76.20;;;;;;5067016;28;20103;-60
2021/05/25 03:23:18;;;;;;;5.13;2.70;;;14.10;76.20;;;;;;5061899;28;20060;-60
2021/05/25 03:25:44;;;;;;;14.23;2.03;;;14.00;76.20;;;;;;5061568;28;20384;-60
2021/05/25 03:28:10;;;;;;;3.22;1.95;;;14.00;76.20;;;;;;5062485;28;20519;-60
2021/05/25 03:30:37;;;;;;;3.03;1.98;;;14.00;76.20;;;;;;5064601;28;20851;-60
2021/05/25 03:33:03;;;;;;;3.05;1.73;;;14.00;76.20;;;;;;5069922;28;20044;-60
2021/05/25 03:35:28;;;;;;;3.58;1.80;;;14.00;76.20;;;;;;5057743;28;20639;-60
2021/05/25 03:37:54;;;;;;;5.50;1.92;;;14.00;76.10;;;;;;5069943;28;20020;-60
2021/05/25 03:40:20;;;;;;;5.07;2.33;;;14.00;76.10;;;;;;5052286;28;20787;-60
2021/05/25 03:42:46;;;;;;;3.10;2.20;;;13.90;76.00;;;;;;5035069;28;20025;-60
2021/05/25 03:45:12;;;;;;;3.22;2.13;;;14.00;76.10;;;;;;5062901;28;20369;-60
2021/05/25 03:47:38;;;;;;;6.28;2.42;;;14.00;76.10;;;;;;5059999;28;20099;-60
2021/05/25 03:50:07;;;;;;;3.67;1.85;;;13.90;76.00;;;;;;5064648;28;20634;-60
2021/05/25 03:52:41;;;;;;;3.15;2.00;;;13.90;76.00;;;;;;5063371;28;20032;-60
2021/05/25 03:55:16;;;;;;;4.22;2.30;;;13.90;76.10;;;;;;5058468;28;20041;-60
2021/05/25 04:00:09;;;;;;;5.57;2.53;;;13.90;76.10;;;;;;5067238;28;20020;-60
2021/05/25 04:02:34;;;;;;;3.08;2.00;;;13.90;76.20;;;;;;5066798;28;20495;-60
2021/05/25 04:05:00;;;;;;;5.00;2.28;;;13.90;76.10;;;;;;5058952;28;20041;-60
2021/05/25 04:07:26;;;;;;;4.68;2.35;;;13.80;76.10;;;;;;5051498;28;20024;-60
2021/05/25 04:09:51;;;;;;;3.03;2.05;;;13.80;76.10;;;;;;5043919;28;20771;-60
2021/05/25 04:12:17;;;;;;;26.95;4.43;;;13.80;76.10;;;;;;5059471;28;20071;-60
2021/05/25 04:14:42;;;;;;;61.67;8.82;;;13.80;76.10;;;;;;5069906;28;20082;-60
2021/05/25 04:17:08;;;;;;;80.03;9.70;;;13.80;76.20;;;;;;5062326;28;20048;-60
2021/05/25 04:19:33;;;;;;;36.35;6.82;;;13.80;76.20;;;;;;5045211;28;20035;-60
2021/05/25 04:21:59;;;;;;;37.20;6.85;;;13.80;76.20;;;;;;5070959;28;20063;-60
2021/05/25 04:24:25;;;;;;;36.70;6.13;;;13.80;76.20;;;;;;5057930;28;20066;-60
2021/05/25 04:26:51;;;;;;;70.70;8.27;;;13.80;76.20;;;;;;5078749;28;20119;-60
2021/05/25 04:29:16;;;;;;;109.85;11.95;;;13.50;76.10;;;;;;5053788;28;20144;-59
2021/05/25 04:31:42;;;;;;;136.32;13.52;;;13.80;76.30;;;;;;5073152;28;20111;-60
2021/05/25 04:34:07;;;;;;;169.55;14.48;;;13.70;76.20;;;;;;5078573;28;20108;-60
2021/05/25 04:36:33;;;;;;;125.25;13.18;;;13.80;76.20;;;;;;5057010;28;20389;-60
2021/05/25 04:38:58;;;;;;;182.68;16.85;;;13.80;76.30;;;;;;5078341;28;20021;-61
2021/05/25 04:41:24;;;;;;;322.63;24.17;;;13.70;76.20;;;;;;5075787;28;20020;-60
2021/05/25 04:43:49;;;;;;;611.15;43.25;;;13.70;76.20;;;;;;5078955;28;20488;-60
2021/05/25 04:46:15;;;;;;;460.02;33.58;;;13.70;76.30;;;;;;5061377;28;20468;-60
2021/05/25 04:48:40;;;;;;;287.73;21.02;;;13.70;76.20;;;;;;5080345;28;20028;-60
2021/05/25 04:51:06;;;;;;;178.13;16.65;;;13.70;76.20;;;;;;5064856;28;20047;-60
2021/05/25 04:53:32;;;;;;;170.27;14.43;;;13.70;76.20;;;;;;5070579;28;20104;-60
2021/05/25 04:55:58;;;;;;;139.27;14.43;;;13.70;76.10;;;;;;5048457;28;20510;-60
2021/05/25 04:58:24;;;;;;;124.63;13.40;;;13.70;76.10;;;;;;5064073;28;20064;-59
2021/05/25 05:00:49;;;;;;;115.97;11.77;;;13.70;76.10;;;;;;5064382;28;20578;-60
2021/05/25 05:03:15;;;;;;;117.85;12.93;;;13.70;76.00;;;;;;5063555;28;20103;-60
2021/05/25 05:05:40;;;;;;;117.57;10.75;;;13.70;76.00;;;;;;5049780;28;20104;-60
2021/05/25 05:08:06;;;;;;;121.72;12.82;;;13.70;76.00;;;;;;5063664;28;20044;-60
2021/05/25 05:10:32;;;;;;;109.78;12.13;;;13.70;76.00;;;;;;5051715;28;20055;-60
2021/05/25 05:12:57;;;;;;;127.25;10.88;;;13.70;76.00;;;;;;5069248;28;20083;-60
2021/05/25 05:15:23;;;;;;;87.32;10.75;;;13.70;75.90;;;;;;5077688;28;20020;-61
2021/05/25 05:17:50;;;;;;;97.30;10.95;;;13.70;75.70;;;;;;5064068;28;20543;-60
2021/05/25 05:20:15;;;;;;;95.00;9.30;;;13.70;75.70;;;;;;5066179;28;20104;-60
2021/05/25 05:22:41;;;;;;;78.65;9.05;;;13.70;75.70;;;;;;5051723;28;20127;-61
2021/05/25 05:25:08;;;;;;;69.13;8.52;;;13.70;76.00;;;;;;5052417;28;20025;-60
2021/05/25 05:27:33;;;;;;;95.40;9.57;;;13.60;75.70;;;;;;5042318;28;20395;-60
2021/05/25 05:29:59;;;;;;;67.85;9.00;;;13.70;75.70;;;;;;5078295;28;20135;-61
2021/05/25 05:32:24;;;;;;;70.22;8.98;;;13.70;75.80;;;;;;5078057;28;20423;-60
2021/05/25 05:34:50;;;;;;;58.03;8.10;;;13.70;75.70;;;;;;5066739;28;20631;-60
2021/05/25 05:37:15;;;;;;;72.45;9.25;;;13.70;75.80;;;;;;5061741;28;20020;-60
2021/05/25 05:39:41;;;;;;;84.00;8.65;;;13.70;75.90;;;;;;5033255;28;20120;-60
2021/05/25 05:42:07;;;;;;;66.47;8.82;;;13.60;75.70;;;;;;5076847;28;20029;-60
2021/05/25 05:44:32;;;;;;;58.40;7.97;;;13.60;75.70;;;;;;5050349;28;20461;-60
2021/05/25 05:46:58;;;;;;;67.07;8.05;;;13.60;75.60;;;;;;5057086;28;20116;-60
2021/05/25 05:49:23;;;;;;;60.17;7.55;;;13.60;75.60;;;;;;5060904;28;20033;-60
2021/05/25 05:51:50;;;;;;;59.80;6.35;;;13.60;75.60;;;;;;5060766;28;20104;-61
2021/05/25 05:54:16;;;;;;;51.70;7.22;;;13.60;75.50;;;;;;5039969;28;20102;-60
2021/05/25 05:56:42;;;;;;;51.38;7.72;;;13.60;75.50;;;;;;5069870;28;20020;-60
2021/05/25 05:59:08;;;;;;;60.40;7.07;;;13.60;75.50;;;;;;5054623;28;20109;-60
2021/05/25 06:01:33;;;;;;;53.25;6.32;;;13.60;75.50;;;;;;5052816;28;20051;-60
2021/05/25 06:03:59;;;;;;;57.38;6.57;;;13.60;75.40;;;;;;5073732;28;20044;-60
2021/05/25 06:06:25;;;;;;;60.00;8.05;;;13.50;75.30;;;;;;5059960;28;20322;-60
2021/05/25 06:08:50;;;;;;;40.50;5.97;;;13.50;75.40;;;;;;5061821;28;20014;-60
2021/05/25 06:11:16;;;;;;;46.80;7.03;;;13.50;75.60;;;;;;5078115;28;20095;-61
2021/05/25 06:13:42;;;;;;;43.92;6.28;;;13.50;75.60;;;;;;5062850;28;20017;-60
2021/05/25 06:16:08;;;;;;;31.98;5.85;;;13.50;75.60;;;;;;5064577;28;20379;-60
2021/05/25 06:18:34;;;;;;;41.42;7.18;;;13.50;75.60;;;;;;5049986;28;20020;-60
2021/05/25 06:21:01;;;;;;;37.80;5.68;;;13.50;75.60;;;;;;5035436;28;20041;-60
2021/05/25 06:23:27;;;;;;;37.00;5.45;;;13.40;75.50;;;;;;5067657;28;20103;-61
2021/05/25 06:25:53;;;;;;;40.35;5.90;;;13.40;75.50;;;;;;5059806;28;20037;-60
2021/05/25 06:28:18;;;;;;;43.67;5.43;;;13.40;75.40;;;;;;5060017;28;20125;-60
2021/05/25 06:30:45;;;;;;;34.15;4.95;;;13.50;75.40;;;;;;5050883;28;20028;-60
2021/05/25 06:33:10;;;;;;;24.52;4.63;;;13.40;75.40;;;;;;5047839;28;20468;-60
2021/05/25 06:35:36;;;;;;;36.22;5.18;;;13.40;75.40;;;;;;5071908;28;20071;-60
2021/05/25 06:38:01;;;;;;;25.95;5.10;;;13.40;75.40;;;;;;5065052;28;20029;-61
2021/05/25 06:40:27;;;;;;;24.95;4.20;;;13.40;75.40;;;;;;5060112;28;20313;-60
2021/05/25 06:42:53;;;;;;;31.45;4.43;;;13.40;75.30;;;;;;5057380;28;20832;-60
2021/05/25 06:45:18;;;;;;;37.22;5.38;;;13.40;75.30;;;;;;5057321;28;20060;-60
2021/05/25 06:47:44;;;;;;;36.65;5.32;;;13.50;75.30;;;;;;5045881;28;20492;-61
2021/05/25 06:50:10;;;;;;;43.65;5.15;;;13.40;75.20;;;;;;5049968;28;20503;-60
2021/05/25 06:52:35;;;;;;;48.17;5.88;;;13.40;75.20;;;;;;5063817;28;20029;-60
2021/05/25 06:55:03;;;;;;;59.47;7.38;;;13.40;75.10;;;;;;5044817;28;20024;-60
2021/05/25 06:57:29;;;;;;;35.60;4.78;;;13.40;75.00;;;;;;5051837;28;20061;-60
2021/05/25 06:59:54;;;;;;;52.08;5.90;;;13.40;75.00;;;;;;5024942;28;20102;-60
2021/05/25 07:02:22;;;;;;;50.47;6.53;;;13.50;75.00;;;;;;5058012;28;20033;-60
2021/05/25 07:04:50;;;;;;;40.72;4.55;;;13.40;75.00;;;;;;5065368;28;20467;-60
2021/05/25 07:07:15;;;;;;;33.63;5.15;;;13.40;74.80;;;;;;5063899;28;20094;-60
2021/05/25 07:09:41;;;;;;;24.58;3.65;;;13.40;74.80;;;;;;5070030;28;20418;-60
2021/05/25 07:12:06;;;;;;;31.33;4.25;;;13.40;74.70;;;;;;5042081;28;20032;-60
2021/05/25 07:14:32;;;;;;;19.85;3.72;;;13.30;74.40;;;;;;5052875;28;20037;-60
2021/05/25 07:16:57;;;;;;;28.25;3.42;;;13.30;74.40;;;;;;5051939;28;20051;-60
2021/05/25 07:19:23;;;;;;;22.95;2.85;;;13.20;74.30;;;;;;5067644;28;20059;-60
2021/05/25 07:21:48;;;;;;;13.20;3.75;;;13.20;74.20;;;;;;5070493;28;20045;-60
2021/05/25 07:24:14;;;;;;;13.77;2.25;;;13.10;74.00;;;;;;5068706;28;20029;-60
2021/05/25 07:26:41;;;;;;;13.88;2.50;;;13.10;73.80;;;;;;5045315;28;20021;-60
2021/05/25 07:29:06;;;;;;;15.07;2.60;;;13.10;73.60;;;;;;5046824;28;20025;-60
2021/05/25 07:31:32;;;;;;;19.10;2.90;;;13.10;73.50;;;;;;5041238;28;20039;-60
2021/05/25 07:33:57;;;;;;;26.85;2.58;;;13.10;73.40;;;;;;5059409;28;20078;-60
2021/05/25 07:36:23;;;;;;;14.68;2.78;;;13.10;73.40;;;;;;5062239;28;20075;-60
2021/05/25 07:38:48;;;;;;;25.38;2.78;;;13.10;73.40;;;;;;5059472;28;20044;-60
2021/05/25 07:41:14;;;;;;;15.07;2.95;;;13.10;73.40;;;;;;5061166;28;20025;-61
2021/05/25 07:43:39;;;;;;;36.75;3.90;;;13.10;73.30;;;;;;5063726;28;20074;-60
2021/05/25 07:46:05;;;;;;;35.67;3.78;;;13.10;73.00;;;;;;5045738;28;20559;-60
2021/05/25 07:48:31;;;;;;;30.95;4.38;;;13.10;73.50;;;;;;5050036;28;20264;-60
2021/05/25 07:50:56;;;;;;;20.45;2.90;;;13.10;73.50;;;;;;5059044;28;20475;-60
2021/05/25 07:53:22;;;;;;;28.95;3.65;;;13.10;73.10;;;;;;5067366;28;20025;-60
2021/05/25 07:55:47;;;;;;;37.83;3.38;;;13.10;73.30;;;;;;5064371;28;20072;-61
2021/05/25 07:58:13;;;;;;;25.42;3.47;;;13.20;73.20;;;;;;5046992;28;20107;-60
2021/05/25 08:00:38;;;;;;;29.83;3.45;;;13.20;73.10;;;;;;5038021;28;20441;-61
2021/05/25 08:03:04;;;;;;;27.65;3.17;;;13.20;73.10;;;;;;5028820;28;20086;-60
2021/05/25 08:05:31;;;;;;;20.42;3.13;;;13.10;73.20;;;;;;5067352;28;20036;-60
2021/05/25 08:07:57;;;;;;;28.15;3.45;;;13.20;73.00;;;;;;5070096;28;20028;-61
2021/05/25 08:10:22;;;;;;;23.38;2.78;;;13.10;73.10;;;;;;5064149;28;20389;-61
2021/05/25 08:12:48;;;;;;;35.63;3.17;;;13.20;72.60;;;;;;5061647;28;21813;-60
2021/05/25 08:15:15;;;;;;;18.65;2.90;;;13.20;72.50;;;;;;5072036;28;20039;-60
2021/05/25 08:20:15;;;;;;;35.97;4.43;;;13.20;72.60;;;;;;5059152;28;20020;-60
2021/05/25 08:22:45;;;;;;;32.40;3.58;;;13.20;72.30;;;;;;5059889;28;20055;-60
2021/05/25 08:25:11;;;;;;;23.75;2.83;;;13.20;71.70;;;;;;5057393;28;20526;-60
2021/05/25 08:27:37;;;;;;;25.60;3.40;;;13.20;71.30;;;;;;5051742;28;20036;-60
2021/05/25 08:30:06;;;;;;;28.85;3.17;;;13.20;71.30;;;;;;5064788;28;20032;-60
2021/05/25 08:32:32;;;;;;;16.13;2.47;;;13.20;71.70;;;;;;5070731;28;20090;-60
2021/05/25 08:34:58;;;;;;;20.67;2.75;;;13.30;71.70;;;;;;5039855;28;20032;-64
2021/05/25 08:37:24;;;;;;;21.95;3.10;;;13.30;71.60;;;;;;5041642;28;20484;-60
2021/05/25 08:39:49;;;;;;;24.33;2.70;;;13.30;71.40;;;;;;5040844;28;21307;-60
2021/05/25 08:42:15;;;;;;;15.32;2.60;;;13.30;71.10;;;;;;5068432;28;20033;-60
2021/05/25 08:44:40;;;;;;;14.13;2.30;;;13.40;70.80;;;;;;5065757;28;20040;-60
2021/05/25 08:47:06;;;;;;;18.27;2.53;;;13.40;70.80;;;;;;5070531;28;20040;-60
2021/05/25 08:49:34;;;;;;;35.25;2.90;;;13.40;70.40;;;;;;5046793;28;20032;-60
2021/05/25 08:52:00;;;;;;;20.27;2.42;;;13.40;70.00;;;;;;5051234;28;20056;-60
2021/05/25 08:54:25;;;;;;;21.67;3.22;;;13.40;69.80;;;;;;5056835;28;20048;-60
2021/05/25 08:56:51;;;;;;;9.13;2.40;;;13.40;69.80;;;;;;5047076;28;20041;-61
2021/05/25 08:59:16;;;;;;;17.02;2.80;;;13.40;69.70;;;;;;5078303;28;20160;-60
2021/05/25 09:01:42;;;;;;;31.85;3.00;;;13.40;69.30;;;;;;5067931;28;20084;-60
2021/05/25 09:04:10;;;;;;;19.38;2.10;;;13.40;69.50;;;;;;5059635;28;20082;-60
2021/05/25 09:06:46;;;;;;;26.50;3.00;;;13.50;69.20;;;;;;5065805;28;20040;-60
2021/05/25 09:09:13;;;;;;;20.98;3.00;;;13.50;69.10;;;;;;5069253;28;20444;-60
2021/05/25 09:12:10;;;;;;;27.90;2.83;;;13.50;68.70;;;;;;5062274;28;20044;-59
2021/05/25 09:14:47;;;;;;;31.25;3.65;;;13.50;68.50;;;;;;5057182;28;20053;-60
2021/05/25 09:17:16;;;;;;;33.72;4.15;;;13.60;68.00;;;;;;5056630;28;20047;-60
2021/05/25 09:19:46;;;;;;;38.67;3.97;;;13.60;68.10;;;;;;5068414;28;20021;-60
2021/05/25 09:22:28;;;;;;;37.25;3.83;;;13.60;68.10;;;;;;5053296;28;20116;-60
2021/05/25 09:24:54;;;;;;;45.47;4.05;;;13.70;68.30;;;;;;5070726;28;20455;-60
2021/05/25 09:27:39;;;;;;;31.75;3.92;;;13.70;68.00;;;;;;5041798;28;20029;-60
2021/05/25 09:30:15;;;;;;;26.33;3.53;;;13.70;68.10;;;;;;5063481;28;20036;-60
2021/05/25 09:32:45;;;;;;;31.83;4.05;;;13.70;68.10;;;;;;5061970;28;20483;-60
2021/05/25 09:35:11;;;;;;;28.70;3.45;;;13.80;68.50;;;;;;5060642;28;20388;-60
2021/05/25 09:37:44;;;;;;;31.35;3.30;;;13.80;67.70;;;;;;5062145;28;20059;-60
2021/05/25 09:40:10;;;;;;;38.70;4.18;;;13.80;67.60;;;;;;5059405;28;20373;-60
2021/05/25 09:42:35;;;;;;;34.92;4.35;;;13.90;67.50;;;;;;5063506;28;20052;-61
2021/05/25 09:45:09;;;;;;;36.75;4.03;;;13.90;67.50;;;;;;5051258;28;20113;-60
2021/05/25 09:47:38;;;;;;;43.13;4.32;;;13.90;67.30;;;;;;5059426;28;20037;-61
2021/05/25 09:50:05;;;;;;;42.63;4.40;;;13.90;67.40;;;;;;5056287;28;20052;-60
2021/05/25 09:52:30;;;;;;;60.60;5.72;;;13.90;67.10;;;;;;5058261;28;20354;-60
2021/05/25 09:55:11;;;;;;;39.13;5.00;;;14.00;67.10;;;;;;5064139;28;20032;-60
2021/05/25 09:57:52;;;;;;;53.03;7.13;;;14.00;67.00;;;;;;5053047;28;20515;-61
2021/05/25 10:00:29;;;;;;;53.03;6.50;;;14.00;66.80;;;;;;5065004;28;20032;-60
2021/05/25 10:03:15;;;;;;;49.33;6.35;;;14.10;66.70;;;;;;5054422;28;20515;-61
2021/05/25 10:05:46;;;;;;;56.88;6.57;;;14.10;66.40;;;;;;5064693;28;20594;-60
2021/05/25 10:08:12;;;;;;;53.22;5.40;;;14.10;66.30;;;;;;5054079;28;20124;-60
2021/05/25 10:10:38;;;;;;;64.32;5.68;;;14.10;66.20;;;;;;5067673;28;20378;-60
2021/05/25 10:13:03;;;;;;;48.90;5.72;;;14.10;66.30;;;;;;5036621;28;20055;-61
2021/05/25 10:15:29;;;;;;;42.97;4.53;;;14.20;66.30;;;;;;5043578;28;20043;-60
2021/05/25 10:18:09;;;;;;;61.88;5.88;;;14.20;66.30;;;;;;5042018;28;20032;-60
2021/05/25 10:20:34;;;;;;;53.20;5.60;;;14.20;66.10;;;;;;5045842;28;20399;-60
2021/05/25 10:23:00;;;;;;;67.88;7.68;;;14.30;66.00;;;;;;5065774;28;20024;-60
2021/05/25 10:25:27;;;;;;;40.40;4.57;;;14.30;66.00;;;;;;5046513;28;20482;-60
2021/05/25 10:27:52;;;;;;;42.78;5.18;;;14.30;65.60;;;;;;5057482;28;20020;-60
2021/05/25 10:30:21;;;;;;;36.05;4.53;;;14.30;65.40;;;;;;5053326;28;20502;-60
2021/05/25 10:32:47;;;;;;;63.20;5.30;;;14.50;65.70;;;;;;5065772;28;20073;-60
2021/05/25 10:35:17;;;;;;;42.83;4.75;;;14.30;65.60;;;;;;5071007;28;20052;-60
2021/05/25 10:38:05;;;;;;;41.17;4.43;;;14.40;65.50;;;;;;5048071;28;20548;-60
2021/05/25 10:40:40;;;;;;;47.45;5.53;;;14.40;65.40;;;;;;5043385;28;20033;-61
2021/05/25 10:43:34;;;;;;;24.02;3.55;;;14.40;65.20;;;;;;5066132;28;20484;-62
2021/05/25 10:46:12;;;;;;;25.17;4.07;;;14.50;64.30;;;;;;5065286;28;20032;-60
2021/05/25 10:49:13;;;;;;;28.65;3.15;;;14.50;63.40;;;;;;5062372;28;20040;-62
2021/05/25 10:51:45;;;;;;;35.63;3.88;;;14.60;63.40;;;;;;5063096;28;20033;-60
2021/05/25 10:54:29;;;;;;;35.17;4.32;;;14.60;63.50;;;;;;5064099;28;20023;-61
2021/05/25 10:56:55;;;;;;;22.33;4.25;;;14.70;63.50;;;;;;5049651;28;20016;-60
2021/05/25 10:59:21;;;;;;;36.72;3.85;;;14.70;63.00;;;;;;5049793;28;20033;-60
2021/05/25 11:01:53;;;;;;;31.33;3.70;;;14.80;62.60;;;;;;5052401;28;20082;-61
2021/05/25 11:04:18;;;;;;;37.42;4.15;;;14.90;62.70;;;;;;5056855;28;20078;-60
2021/05/25 11:06:45;;;;;;;46.05;4.47;;;14.90;62.20;;;;;;5047451;28;20430;-61
2021/05/25 11:09:26;;;;;;;56.83;4.72;;;15.00;61.90;;;;;;5043239;28;20407;-60
2021/05/25 11:12:16;;;;;;;39.28;4.03;;;15.10;61.50;;;;;;5041360;28;20021;-61
2021/05/25 11:15:12;;;;;;;32.92;3.80;;;15.10;60.60;;;;;;5066119;28;20472;-60
2021/05/25 11:17:38;;;;;;;31.85;3.88;;;15.20;60.30;;;;;;5061806;28;20036;-60
2021/05/25 11:20:51;;;;;;;30.50;3.65;;;15.20;60.00;;;;;;5067160;28;20386;-60
2021/05/25 11:23:39;;;;;;;28.90;3.00;;;15.30;60.00;;;;;;5060211;28;20036;-60
2021/05/25 11:26:05;;;;;;;26.08;3.28;;;15.30;59.70;;;;;;5066150;28;20443;-60
2021/05/25 11:29:08;;;;;;;20.80;3.17;;;15.30;59.20;;;;;;5042497;28;20078;-60
2021/05/25 11:31:37;;;;;;;20.73;2.75;;;15.30;59.10;;;;;;5067023;28;20415;-60
2021/05/25 11:34:06;;;;;;;16.55;2.72;;;15.40;58.70;;;;;;5040677;28;20534;-60
2021/05/25 11:36:32;;;;;;;29.13;3.45;;;15.50;58.40;;;;;;5044403;28;20037;-60
2021/05/25 11:38:57;;;;;;;36.72;3.60;;;15.50;58.10;;;;;;5056874;28;20112;-60
2021/05/25 11:41:23;;;;;;;32.50;3.40;;;15.60;58.10;;;;;;5049082;28;20028;-59
2021/05/25 11:43:49;;;;;;;26.13;3.30;;;15.70;57.80;;;;;;5058189;28;20029;-63
2021/05/25 11:46:15;;;;;;;17.90;2.80;;;15.80;57.50;;;;;;5048212;28;20095;-61
2021/05/25 11:48:40;;;;;;;30.58;4.22;;;15.90;57.30;;;;;;5061915;28;20025;-59
2021/05/25 11:51:09;;;;;;;28.80;3.72;;;16.00;57.00;;;;;;5072051;28;20480;-59
2021/05/25 11:53:36;;;;;;;39.20;4.88;;;16.20;57.20;;;;;;5058087;28;20044;-60
2021/05/25 11:56:02;;;;;;;46.10;5.90;;;16.30;56.80;;;;;;5064368;28;20623;-60
2021/05/25 11:58:27;;;;;;;59.50;7.53;;;16.40;56.20;;;;;;5048915;28;20037;-59
2021/05/25 12:00:53;;;;;;;54.00;6.50;;;16.50;56.30;;;;;;5070375;28;20024;-61
2021/05/25 12:03:18;;;;;;;59.25;5.47;;;16.50;56.20;;;;;;5049591;28;20074;-61
2021/05/25 12:05:45;;;;;;;76.38;9.55;;;16.50;56.30;;;;;;5061938;28;20119;-61
2021/05/25 12:08:10;;;;;;;48.17;5.82;;;16.60;56.60;;;;;;5052269;28;20032;-60
2021/05/25 12:10:42;;;;;;;46.90;5.10;;;16.70;56.40;;;;;;5063462;28;20411;-61
2021/05/25 12:13:15;;;;;;;60.70;6.30;;;16.70;56.20;;;;;;5025444;28;20400;-60
2021/05/25 12:15:42;;;;;;;42.25;5.38;;;16.70;56.00;;;;;;5040728;28;20021;-60
2021/05/25 12:18:09;;;;;;;118.75;16.25;;;16.80;55.70;;;;;;5058348;28;20076;-60
2021/05/25 12:20:42;;;;;;;30.58;4.60;;;16.80;55.80;;;;;;5023230;28;20021;-61
2021/05/25 12:23:08;;;;;;;40.50;4.05;;;16.70;56.20;;;;;;5017834;28;20107;-60
2021/05/25 12:25:34;;;;;;;30.27;4.13;;;16.70;56.70;;;;;;5034640;28;20026;-61
2021/05/25 12:28:13;;;;;;;13.18;2.83;;;16.80;56.40;;;;;;5035831;28;20515;-61
2021/05/25 12:30:49;;;;;;;32.78;3.75;;;16.80;56.70;;;;;;5010261;28;20033;-60
2021/05/25 12:33:19;;;;;;;15.57;2.65;;;16.90;55.60;;;;;;5019219;28;20029;-62
2021/05/25 12:35:45;;;;;;;20.27;1.65;;;17.00;55.70;;;;;;5049983;28;20029;-61
2021/05/25 12:38:12;;;;;;;35.30;3.80;;;17.20;55.20;;;;;;5050914;28;20418;-60
2021/05/25 12:40:39;;;;;;;12.68;1.70;;;17.30;54.90;;;;;;5036882;28;20405;-61
2021/05/25 12:43:21;;;;;;;25.35;2.60;;;17.30;54.80;;;;;;5061852;28;20064;-60
2021/05/25 12:45:47;;;;;;;37.42;4.35;;;17.40;54.80;;;;;;5043962;28;20078;-60